createdAt,value
2018-02-19T00:00:20.167Z,26.50
2018-02-19T00:02:47.724Z,27.90
2018-02-19T00:05:15.307Z,25.73
2018-02-19T00:07:42.967Z,30.37
2018-02-19T00:10:10.511Z,27.63
2018-02-19T00:12:38.071Z,24.50
2018-02-19T00:15:05.629Z,27.37
2018-02-19T00:17:33.154Z,26.47
2018-02-19T00:20:00.754Z,25.60
2018-02-19T00:22:28.309Z,28.07
2018-02-19T00:24:55.845Z,26.60
2018-02-19T00:27:23.429Z,26.70
2018-02-19T00:29:50.983Z,29.93
2018-02-19T00:32:18.550Z,29.47
2018-02-19T00:34:46.150Z,27.47
2018-02-19T00:37:13.705Z,27.13
2018-02-19T00:39:41.270Z,28.80
2018-02-19T00:42:08.792Z,29.67
2018-02-19T00:44:36.342Z,28.87
2018-02-19T00:47:03.904Z,30.90
2018-02-19T00:49:31.434Z,32.40
2018-02-19T00:51:59.001Z,26.73
2018-02-19T00:54:27.348Z,30.53
2018-02-19T00:56:54.863Z,29.10
2018-02-19T00:59:22.403Z,29.97
2018-02-19T01:01:49.981Z,32.80
2018-02-19T01:04:17.523Z,28.37
2018-02-19T01:06:45.096Z,32.93
2018-02-19T01:09:12.661Z,28.30
2018-02-19T01:11:40.260Z,28.03
2018-02-19T01:14:07.788Z,32.37
2018-02-19T01:16:35.341Z,29.97
2018-02-19T01:19:02.951Z,31.33
2018-02-19T01:21:30.511Z,28.07
2018-02-19T01:23:58.114Z,29.90
2018-02-19T01:26:26.398Z,30.70
2018-02-19T01:28:54.014Z,31.60
2018-02-19T01:31:21.573Z,28.93
2018-02-19T01:33:49.134Z,31.57
2018-02-19T01:36:16.688Z,26.70
2018-02-19T01:38:44.251Z,31.17
2018-02-19T01:41:11.787Z,25.63
2018-02-19T01:43:39.348Z,31.90
2018-02-19T01:46:06.930Z,33.37
2018-02-19T01:48:34.495Z,30.17
2018-02-19T01:51:02.063Z,28.77
2018-02-19T01:53:29.615Z,33.20
2018-02-19T01:55:57.150Z,28.53
2018-02-19T01:58:24.721Z,31.10
2018-02-19T02:00:52.277Z,28.00
2018-02-19T02:03:19.806Z,26.67
2018-02-19T02:05:47.366Z,28.03
2018-02-19T02:08:14.926Z,29.00
2018-02-19T02:10:42.569Z,29.37
2018-02-19T02:13:10.888Z,29.67
2018-02-19T02:15:38.478Z,29.20
2018-02-19T02:18:06.055Z,29.67
2018-02-19T02:20:33.617Z,28.03
2018-02-19T02:23:01.177Z,28.50
2018-02-19T02:25:28.793Z,27.50
2018-02-19T02:27:57.169Z,28.70
2018-02-19T02:30:24.731Z,30.70
2018-02-19T02:32:52.302Z,25.63
2018-02-19T02:35:19.831Z,29.53
2018-02-19T02:37:47.409Z,30.43
2018-02-19T02:40:14.988Z,28.70
2018-02-19T02:42:42.560Z,25.73
2018-02-19T02:45:10.183Z,26.83
2018-02-19T02:47:37.773Z,26.97
2018-02-19T02:50:05.313Z,22.70
2018-02-19T02:52:32.836Z,21.97
2018-02-19T02:55:00.391Z,22.20
2018-02-19T02:57:27.967Z,23.43
2018-02-19T02:59:55.491Z,19.83
2018-02-19T03:02:23.060Z,23.70
2018-02-19T03:04:50.632Z,23.47
2018-02-19T03:07:18.950Z,23.20
2018-02-19T03:09:46.468Z,21.60
2018-02-19T03:12:14.803Z,18.87
2018-02-19T03:14:42.331Z,22.00
2018-02-19T03:17:09.897Z,18.97
2018-02-19T03:19:37.456Z,22.17
2018-02-19T03:22:05.042Z,22.80
2018-02-19T03:24:32.581Z,19.57
2018-02-19T03:27:00.155Z,21.30
2018-02-19T03:29:27.755Z,19.47
2018-02-19T03:31:55.276Z,22.03
2018-02-19T03:34:22.824Z,18.63
2018-02-19T03:36:50.431Z,19.07
2018-02-19T03:39:18.000Z,20.03
2018-02-19T03:41:45.560Z,21.30
2018-02-19T03:44:13.948Z,20.70
2018-02-19T03:46:41.495Z,22.40
2018-02-19T03:49:09.056Z,20.47
2018-02-19T03:51:36.619Z,18.77
2018-02-19T03:54:04.904Z,19.60
2018-02-19T03:56:32.469Z,21.20
2018-02-19T03:59:00.795Z,22.03
2018-02-19T04:01:28.363Z,19.90
2018-02-19T04:03:55.920Z,17.20
2018-02-19T04:06:23.549Z,16.87
2018-02-19T04:08:51.082Z,17.20
2018-02-19T04:11:19.353Z,20.27
2018-02-19T04:13:47.673Z,18.37
2018-02-19T04:16:15.252Z,21.60
2018-02-19T04:18:42.804Z,21.17
2018-02-19T04:21:10.307Z,17.50
2018-02-19T04:23:37.880Z,17.97
2018-02-19T04:26:06.197Z,20.33
2018-02-19T04:28:33.797Z,18.33
2018-02-19T04:31:01.331Z,17.03
2018-02-19T04:33:28.893Z,18.43
2018-02-19T04:35:56.438Z,16.27
2018-02-19T04:38:24.002Z,20.27
2018-02-19T04:40:51.531Z,18.60
2018-02-19T04:43:19.154Z,19.10
2018-02-19T04:46:06.547Z,23.10
2018-02-19T04:48:34.101Z,18.20
2018-02-19T04:51:01.676Z,20.77
2018-02-19T04:53:29.209Z,17.63
2018-02-19T04:55:56.723Z,20.13
2018-02-19T04:58:24.267Z,19.97
2018-02-19T05:00:51.800Z,21.47
2018-02-19T05:03:20.122Z,18.10
2018-02-19T05:05:47.685Z,18.43
2018-02-19T05:08:15.205Z,17.40
2018-02-19T05:10:42.763Z,18.27
2018-02-19T05:13:10.339Z,16.80
2018-02-19T05:15:37.877Z,17.83
2018-02-19T05:18:05.446Z,17.73
2018-02-19T05:20:32.968Z,21.33
2018-02-19T05:23:00.547Z,21.00
2018-02-19T05:25:28.078Z,18.37
2018-02-19T05:27:55.599Z,22.43
2018-02-19T05:30:23.221Z,19.80
2018-02-19T05:32:50.798Z,23.70
2018-02-19T05:35:18.331Z,21.37
2018-02-19T05:37:45.858Z,21.07
2018-02-19T05:40:14.201Z,24.30
2018-02-19T05:42:41.728Z,21.67
2018-02-19T05:45:09.298Z,19.43
2018-02-19T05:47:36.879Z,20.03
2018-02-19T05:50:04.455Z,22.20
2018-02-19T05:52:31.995Z,18.93
2018-02-19T05:54:59.520Z,22.80
2018-02-19T05:57:27.088Z,19.60
2018-02-19T05:59:55.495Z,19.60
2018-02-19T06:02:23.024Z,21.00
2018-02-19T06:04:50.743Z,19.47
2018-02-19T06:07:18.296Z,24.47
2018-02-19T06:09:45.817Z,20.37
2018-02-19T06:12:13.343Z,24.10
2018-02-19T06:14:41.480Z,21.87
2018-02-19T06:17:09.084Z,21.43
2018-02-19T06:19:36.849Z,21.97
2018-02-19T06:22:04.408Z,22.07
2018-02-19T06:24:32.816Z,21.43
2018-02-19T06:27:00.353Z,21.50
2018-02-19T06:29:27.916Z,21.70
2018-02-19T06:31:56.213Z,22.67
2018-02-19T06:34:23.808Z,25.37
2018-02-19T06:36:51.379Z,23.80
2018-02-19T06:39:18.927Z,24.33
2018-02-19T06:41:46.523Z,24.17
2018-02-19T06:44:14.084Z,22.20
2018-02-19T06:46:41.660Z,24.77
2018-02-19T06:49:09.222Z,22.50
2018-02-19T06:51:36.780Z,22.03
2018-02-19T06:54:04.375Z,24.87
2018-02-19T06:56:32.005Z,25.50
2018-02-19T06:58:59.525Z,19.03
2018-02-19T07:01:27.187Z,20.53
2018-02-19T07:03:54.732Z,24.07
2018-02-19T07:06:22.288Z,23.33
2018-02-19T07:08:49.856Z,20.60
2018-02-19T07:11:17.413Z,22.80
2018-02-19T07:13:44.976Z,22.40
2018-02-19T07:16:12.619Z,22.43
2018-02-19T07:18:40.144Z,21.90
2018-02-19T07:21:08.410Z,24.73
2018-02-19T07:23:35.952Z,23.00
2018-02-19T07:26:03.503Z,25.23
2018-02-19T07:28:31.111Z,22.03
2018-02-19T07:30:58.720Z,26.93
2018-02-19T07:33:26.262Z,21.13
2018-02-19T07:35:58.859Z,27.20
2018-02-19T07:38:26.416Z,23.23
2018-02-19T07:40:54.063Z,22.70
2018-02-19T07:43:21.643Z,24.30
2018-02-19T07:45:49.245Z,21.37
2018-02-19T07:48:16.872Z,23.57
2018-02-19T07:50:44.428Z,20.30
2018-02-19T07:53:12.006Z,21.43
2018-02-19T07:55:39.759Z,22.60
2018-02-19T07:58:07.332Z,26.07
2018-02-19T08:00:34.889Z,19.57
2018-02-19T08:03:02.756Z,23.37
2018-02-19T08:05:30.379Z,22.83
2018-02-19T08:07:57.915Z,20.23
2018-02-19T08:10:25.484Z,25.63
2018-02-19T08:12:53.036Z,25.07
2018-02-19T08:15:20.657Z,23.93
2018-02-19T08:17:48.259Z,23.77
2018-02-19T08:20:15.820Z,26.97
2018-02-19T08:22:43.424Z,23.50
2018-02-19T08:25:10.940Z,26.43
2018-02-19T08:27:38.494Z,26.87
2018-02-19T08:30:06.093Z,24.37
2018-02-19T08:32:33.668Z,27.97
2018-02-19T08:35:01.279Z,27.27
2018-02-19T08:37:28.869Z,25.83
2018-02-19T08:39:56.592Z,27.60
2018-02-19T08:42:25.527Z,27.43
2018-02-19T08:44:53.115Z,25.17
2018-02-19T08:47:20.747Z,26.23
2018-02-19T08:49:48.419Z,22.10
2018-02-19T08:52:15.940Z,24.03
2018-02-19T08:54:44.272Z,24.83
2018-02-19T08:57:11.815Z,23.80
2018-02-19T08:59:39.339Z,27.10
2018-02-19T09:02:07.684Z,24.53
2018-02-19T09:04:36.071Z,24.63
2018-02-19T09:07:03.693Z,24.30
2018-02-19T09:09:31.258Z,23.10
2018-02-19T09:11:58.819Z,32.07
2018-02-19T09:14:26.394Z,27.60
2018-02-19T09:16:54.005Z,24.43
2018-02-19T09:19:21.692Z,24.07
2018-02-19T09:21:49.329Z,24.80
2018-02-19T09:24:16.908Z,23.20
2018-02-19T09:26:44.463Z,25.03
2018-02-19T09:29:12.152Z,24.90
2018-02-19T09:31:39.872Z,25.07
2018-02-19T09:34:07.441Z,25.20
2018-02-19T09:36:35.009Z,24.27
2018-02-19T09:39:02.538Z,25.00
2018-02-19T09:41:30.980Z,24.07
2018-02-19T09:43:58.533Z,27.57
2018-02-19T09:46:26.109Z,27.50
2018-02-19T09:48:53.669Z,29.43
2018-02-19T09:51:21.266Z,23.37
2018-02-19T09:53:49.629Z,25.47
2018-02-19T09:56:17.254Z,27.80
2018-02-19T09:58:44.799Z,26.07
2018-02-19T10:01:12.327Z,28.43
2018-02-19T10:03:39.920Z,27.93
2018-02-19T10:06:07.447Z,30.53
2018-02-19T10:08:36.524Z,25.30
2018-02-19T10:11:04.056Z,24.50
2018-02-19T10:13:33.236Z,25.50
2018-02-19T10:16:00.880Z,25.60
2018-02-19T10:18:28.570Z,25.10
2018-02-19T10:20:56.907Z,26.73
2018-02-19T10:23:24.511Z,25.73
2018-02-19T10:25:52.092Z,31.70
2018-02-19T10:28:19.728Z,27.57
2018-02-19T10:30:47.304Z,29.70
2018-02-19T10:33:14.856Z,32.03
2018-02-19T10:35:42.483Z,28.73
2018-02-19T10:38:10.024Z,23.37
2018-02-19T10:40:38.343Z,27.77
2018-02-19T10:43:05.900Z,27.97
2018-02-19T10:45:33.749Z,31.40
2018-02-19T10:48:01.339Z,24.87
2018-02-19T10:50:29.250Z,25.57
2018-02-19T10:52:57.567Z,36.77
2018-02-19T10:55:25.079Z,27.93
2018-02-19T10:57:52.657Z,24.07
2018-02-19T11:00:26.654Z,29.23
2018-02-19T11:02:54.224Z,32.20
2018-02-19T11:05:21.836Z,25.23
2018-02-19T11:07:49.385Z,29.30
2018-02-19T11:10:16.974Z,29.77
2018-02-19T11:12:44.628Z,25.07
2018-02-19T11:15:12.942Z,34.07
2018-02-19T11:17:40.505Z,31.90
2018-02-19T11:20:08.925Z,25.50
2018-02-19T11:22:36.502Z,27.53
2018-02-19T11:25:04.048Z,34.60
2018-02-19T11:27:31.743Z,31.53
2018-02-19T11:29:59.373Z,29.23
2018-02-19T11:32:26.964Z,30.33
2018-02-19T11:34:54.557Z,25.27
2018-02-19T11:37:22.120Z,29.67
2018-02-19T11:39:49.694Z,29.60
2018-02-19T11:42:17.276Z,29.50
2018-02-19T11:44:44.821Z,30.07
2018-02-19T11:47:12.358Z,26.37
2018-02-19T11:49:40.041Z,30.93
2018-02-19T11:52:07.566Z,26.03
2018-02-19T11:54:35.164Z,28.83
2018-02-19T11:57:02.705Z,25.50
2018-02-19T11:59:30.262Z,31.33
2018-02-19T12:01:57.964Z,28.83
2018-02-19T12:04:25.598Z,30.70
2018-02-19T12:06:53.904Z,25.77
2018-02-19T12:09:21.795Z,27.37
2018-02-19T12:11:49.314Z,27.57
2018-02-19T12:14:16.910Z,30.77
2018-02-19T12:16:44.517Z,27.53
2018-02-19T12:19:12.095Z,25.87
2018-02-19T12:21:39.918Z,31.87
2018-02-19T12:24:07.672Z,27.47
2018-02-19T12:26:35.252Z,30.20
2018-02-19T12:29:02.771Z,28.30
2018-02-19T12:31:30.473Z,25.53
2018-02-19T12:33:58.053Z,29.17
2018-02-19T12:36:25.610Z,27.83
2018-02-19T12:38:53.191Z,25.40
2018-02-19T12:41:21.001Z,29.20
2018-02-19T12:43:48.611Z,30.03
2018-02-19T12:46:16.170Z,24.87
2018-02-19T12:48:43.728Z,30.67
2018-02-19T12:51:11.409Z,27.97
2018-02-19T12:53:39.042Z,28.60
2018-02-19T12:56:07.420Z,24.33
2018-02-19T12:58:35.848Z,26.23
2018-02-19T13:01:03.493Z,31.73
2018-02-19T13:03:31.033Z,26.97
2018-02-19T13:05:59.359Z,28.77
2018-02-19T13:08:26.939Z,25.07
2018-02-19T13:10:54.498Z,28.33
2018-02-19T13:13:22.103Z,26.20
2018-02-19T13:15:49.639Z,32.73
2018-02-19T13:18:17.190Z,25.83
2018-02-19T13:20:44.794Z,25.70
2018-02-19T13:23:12.335Z,24.37
2018-02-19T13:25:39.969Z,25.53
2018-02-19T13:28:07.608Z,25.43
2018-02-19T13:30:35.165Z,25.20
2018-02-19T13:33:02.756Z,27.87
2018-02-19T13:35:31.143Z,27.50
2018-02-19T13:37:58.674Z,25.57
2018-02-19T13:40:26.345Z,27.97
2018-02-19T13:42:53.879Z,25.93
2018-02-19T13:45:21.504Z,31.33
2018-02-19T13:47:49.063Z,27.80
2018-02-19T13:50:16.686Z,25.13
2018-02-19T13:52:44.396Z,22.80
2018-02-19T13:55:11.995Z,23.60
2018-02-19T13:57:39.616Z,24.90
2018-02-19T14:00:07.224Z,27.00
2018-02-19T14:02:34.780Z,25.90
2018-02-19T14:05:03.224Z,25.23
2018-02-19T14:07:31.021Z,22.60
2018-02-19T14:09:58.640Z,26.57
2018-02-19T14:12:26.208Z,23.53
2018-02-19T14:14:53.809Z,24.03
2018-02-19T14:17:21.479Z,27.03
2018-02-19T14:19:48.994Z,26.67
2018-02-19T14:22:16.635Z,27.60
2018-02-19T14:24:44.967Z,29.73
2018-02-19T14:27:12.617Z,29.47
2018-02-19T14:29:40.176Z,24.50
2018-02-19T14:32:07.807Z,27.83
2018-02-19T14:34:36.166Z,26.87
2018-02-19T14:37:04.508Z,27.33
2018-02-19T14:39:32.121Z,25.40
2018-02-19T14:41:59.796Z,27.10
2018-02-19T14:44:27.377Z,29.50
2018-02-19T14:46:54.941Z,23.50
2018-02-19T14:49:22.608Z,21.43
2018-02-19T14:51:50.197Z,25.20
2018-02-19T14:54:18.037Z,22.80
2018-02-19T14:56:45.668Z,22.10
2018-02-19T14:59:14.109Z,24.50
2018-02-19T15:01:41.716Z,25.23
2018-02-19T15:04:09.295Z,22.33
2018-02-19T15:06:36.874Z,27.90
2018-02-19T15:09:04.596Z,23.07
2018-02-19T15:11:32.133Z,26.97
2018-02-19T15:13:59.705Z,25.90
2018-02-19T15:16:27.408Z,25.07
2018-02-19T15:18:54.980Z,25.77
2018-02-19T15:21:22.548Z,26.40
2018-02-19T15:23:50.174Z,26.37
2018-02-19T15:26:18.526Z,24.60
2018-02-19T15:28:46.092Z,26.80
2018-02-19T15:31:13.693Z,25.20
2018-02-19T15:33:42.214Z,28.90
2018-02-19T15:36:09.834Z,30.23
2018-02-19T15:38:37.540Z,25.77
2018-02-19T15:41:05.166Z,24.97
2018-02-19T15:43:32.789Z,28.40
2018-02-19T15:46:00.378Z,28.77
2018-02-19T15:48:28.007Z,28.00
2018-02-19T15:50:55.552Z,27.90
2018-02-19T15:53:23.139Z,26.87
2018-02-19T15:55:50.672Z,29.60
2018-02-19T15:58:19.007Z,27.27
2018-02-19T16:00:46.588Z,29.40
2018-02-19T16:03:14.147Z,27.37
2018-02-19T16:05:41.699Z,28.83
2018-02-19T16:08:09.240Z,26.33
2018-02-19T16:10:36.805Z,27.40
2018-02-19T16:13:05.100Z,30.13
2018-02-19T16:15:32.684Z,30.03
2018-02-19T16:18:00.993Z,27.67
2018-02-19T16:20:28.548Z,28.70
2018-02-19T16:22:56.161Z,27.97
2018-02-19T16:25:23.711Z,33.30
2018-02-19T16:27:52.180Z,26.97
2018-02-19T16:30:19.785Z,26.30
2018-02-19T16:32:47.370Z,30.40
2018-02-19T16:35:14.978Z,31.30
2018-02-19T16:37:42.528Z,25.97
2018-02-19T16:40:10.395Z,26.57
2018-02-19T16:42:37.921Z,26.33
2018-02-19T16:45:05.548Z,28.93
2018-02-19T16:47:33.860Z,27.80
2018-02-19T16:50:01.416Z,27.57
2018-02-19T16:52:28.980Z,30.07
2018-02-19T16:54:56.588Z,31.23
2018-02-19T16:57:24.138Z,25.97
2018-02-19T16:59:51.676Z,28.57
2018-02-19T17:02:19.261Z,28.13
2018-02-19T17:04:46.880Z,25.77
2018-02-19T17:07:14.464Z,31.50
2018-02-19T17:09:42.127Z,29.03
2018-02-19T17:12:09.677Z,30.77
2018-02-19T17:14:37.232Z,25.87
2018-02-19T17:17:04.811Z,28.07
2018-02-19T17:19:32.514Z,27.73
2018-02-19T17:22:00.667Z,26.93
2018-02-19T17:24:28.229Z,26.30
2018-02-19T17:26:55.789Z,26.97
2018-02-19T17:29:23.376Z,26.33
2018-02-19T17:31:50.953Z,27.37
2018-02-19T17:34:19.388Z,27.27
2018-02-19T17:36:46.922Z,32.07
2018-02-19T17:39:14.506Z,27.40
2018-02-19T17:41:42.074Z,30.03
2018-02-19T17:44:09.661Z,29.93
2018-02-19T17:46:37.289Z,26.57
2018-02-19T17:49:04.854Z,26.47
2018-02-19T17:51:32.428Z,29.90
2018-02-19T17:54:00.050Z,31.10
2018-02-19T17:56:27.599Z,30.17
2018-02-19T17:58:55.480Z,26.80
2018-02-19T18:01:23.026Z,27.87
2018-02-19T18:03:50.575Z,32.87
2018-02-19T18:06:18.123Z,27.20
2018-02-19T18:08:45.697Z,30.40
2018-02-19T18:11:13.256Z,32.43
2018-02-19T18:13:40.862Z,27.03
2018-02-19T18:16:08.394Z,27.40
2018-02-19T18:18:36.087Z,31.17
2018-02-19T18:21:03.607Z,31.17
2018-02-19T18:23:31.179Z,31.83
2018-02-19T18:25:58.796Z,32.40
2018-02-19T18:28:26.392Z,29.77
2018-02-19T18:30:53.946Z,30.83
2018-02-19T18:33:21.484Z,28.00
2018-02-19T18:35:49.142Z,30.13
2018-02-19T18:38:17.452Z,30.77
2018-02-19T18:40:45.025Z,32.97
2018-02-19T18:43:12.581Z,31.53
2018-02-19T18:45:40.192Z,28.20
2018-02-19T18:48:07.748Z,30.70
2018-02-19T18:50:35.339Z,29.07
2018-02-19T18:53:02.935Z,30.87
2018-02-19T18:55:30.533Z,32.93
2018-02-19T18:57:58.884Z,34.67
2018-02-19T19:00:26.458Z,32.17
2018-02-19T19:02:54.037Z,32.13
2018-02-19T19:05:21.606Z,32.27
2018-02-19T19:08:01.015Z,30.53
2018-02-19T19:10:40.298Z,32.27
2018-02-19T19:13:07.863Z,30.80
2018-02-19T19:15:35.395Z,28.97
2018-02-19T19:18:03.020Z,27.87
2018-02-19T19:20:30.569Z,29.47
2018-02-19T19:22:58.152Z,31.73
2018-02-19T19:25:25.734Z,31.10
2018-02-19T19:27:53.321Z,30.67
2018-02-19T19:30:20.913Z,29.70
2018-02-19T19:32:48.541Z,30.17
2018-02-19T19:35:16.127Z,31.03
2018-02-19T19:37:43.671Z,29.57
2018-02-19T19:40:11.246Z,31.47
2018-02-19T19:42:38.820Z,32.93
2018-02-19T19:45:06.389Z,31.70
2018-02-19T19:47:33.979Z,33.27
2018-02-19T19:50:01.560Z,32.27
2018-02-19T19:52:29.106Z,31.03
2018-02-19T19:54:56.693Z,34.87
2018-02-19T19:57:24.341Z,33.13
2018-02-19T19:59:51.900Z,32.80
2018-02-19T20:02:20.231Z,36.30
2018-02-19T20:04:47.852Z,33.77
2018-02-19T20:07:15.451Z,34.57
2018-02-19T20:09:42.986Z,32.37
2018-02-19T20:12:11.045Z,33.67
2018-02-19T20:14:38.634Z,36.17
2018-02-19T20:17:06.296Z,37.37
2018-02-19T20:19:33.860Z,36.00
2018-02-19T20:22:01.428Z,35.77
2018-02-19T20:24:28.988Z,36.37
2018-02-19T20:26:56.551Z,36.37
2018-02-19T20:29:24.107Z,35.97
2018-02-19T20:31:51.718Z,38.70
2018-02-19T20:34:19.223Z,36.23
2018-02-19T20:36:46.836Z,38.43
2018-02-19T20:39:15.146Z,40.27
2018-02-19T20:41:42.723Z,38.53
2018-02-19T20:44:10.271Z,37.53
2018-02-19T20:46:37.853Z,36.47
2018-02-19T20:49:05.408Z,39.67
2018-02-19T20:51:33.051Z,38.23
2018-02-19T20:54:00.628Z,36.27
2018-02-19T20:56:28.231Z,39.73
2018-02-19T20:58:55.851Z,38.37
2018-02-19T21:01:23.532Z,41.00
2018-02-19T21:03:51.080Z,36.80
2018-02-19T21:06:18.679Z,39.37
2018-02-19T21:08:46.199Z,38.30
2018-02-19T21:11:13.742Z,39.17
2018-02-19T21:13:42.076Z,40.63
2018-02-19T21:16:10.419Z,40.97
2018-02-19T21:18:37.981Z,39.53
2018-02-19T21:21:05.561Z,46.67
2018-02-19T21:23:33.089Z,41.10
2018-02-19T21:26:00.642Z,38.37
2018-02-19T21:28:29.064Z,37.30
2018-02-19T21:30:57.394Z,41.20
2018-02-19T21:33:24.924Z,41.67
2018-02-19T21:35:52.477Z,44.37
2018-02-19T21:38:20.036Z,39.20
2018-02-19T21:40:48.438Z,39.00
2018-02-19T21:43:16.015Z,47.73
2018-02-19T21:45:43.549Z,38.87
2018-02-19T21:48:11.071Z,43.10
2018-02-19T21:50:38.620Z,40.83
2018-02-19T21:53:06.133Z,36.67
2018-02-19T21:55:33.699Z,43.37
2018-02-19T21:58:01.262Z,42.23
2018-02-19T22:00:28.783Z,45.33
2018-02-19T22:02:56.341Z,42.17
2018-02-19T22:05:23.877Z,42.97
2018-02-19T22:07:51.432Z,40.67
2018-02-19T22:10:19.030Z,42.63
2018-02-19T22:12:46.583Z,39.83
2018-02-19T22:15:14.939Z,42.23
2018-02-19T22:17:42.474Z,42.80
2018-02-19T22:20:10.066Z,44.77
2018-02-19T22:22:37.643Z,43.20
2018-02-19T22:25:05.203Z,44.27
2018-02-19T22:27:32.741Z,50.07
2018-02-19T22:30:00.292Z,47.97
2018-02-19T22:32:27.806Z,40.67
2018-02-19T22:34:55.311Z,49.77
2018-02-19T22:37:23.012Z,48.00
2018-02-19T22:39:51.305Z,51.47
2018-02-19T22:42:18.868Z,43.80
2018-02-19T22:44:46.405Z,47.10
2018-02-19T22:47:13.943Z,46.07
2018-02-19T22:49:41.484Z,43.23
2018-02-19T22:52:09.016Z,43.70
2018-02-19T22:54:36.561Z,46.40
2018-02-19T22:57:04.088Z,42.80
2018-02-19T22:59:31.644Z,45.33
2018-02-19T23:01:59.193Z,43.43
2018-02-19T23:04:26.745Z,44.03
2018-02-19T23:06:54.256Z,45.10
2018-02-19T23:09:21.819Z,49.57
2018-02-19T23:11:50.119Z,49.43
2018-02-19T23:14:17.703Z,42.57
2018-02-19T23:16:45.212Z,43.97
2018-02-19T23:19:13.579Z,43.93
2018-02-19T23:21:41.151Z,48.40
2018-02-19T23:24:08.725Z,48.73
2018-02-19T23:26:36.278Z,47.17
2018-02-19T23:29:03.827Z,47.87
2018-02-19T23:31:31.388Z,50.43
2018-02-19T23:33:59.668Z,44.23
2018-02-19T23:36:27.228Z,42.77
2018-02-19T23:38:55.516Z,43.90
2018-02-19T23:41:23.069Z,45.53
2018-02-19T23:43:51.389Z,48.10
2018-02-19T23:46:18.947Z,44.70
2018-02-19T23:48:46.472Z,45.93
2018-02-19T23:51:14.032Z,45.93
2018-02-19T23:53:41.560Z,48.10
2018-02-19T23:56:09.083Z,47.60
2018-02-19T23:58:36.643Z,46.23
